sensor_id;sensor_type;location;lat;lon;timestamp;P1;durP1;ratioP1;P2;durP2;ratioP2
13321;SDS011;6730;46.248;6.930;2023-06-10T00:01:29;8.00;;;7.22;;
13321;SDS011;6730;46.248;6.930;2023-06-10T00:03:56;8.07;;;7.38;;
13321;SDS011;6730;46.248;6.930;2023-06-10T00:06:22;8.80;;;7.03;;
13321;SDS011;6730;46.248;6.930;2023-06-10T00:08:49;7.97;;;7.18;;
13321;SDS011;6730;46.248;6.930;2023-06-10T00:11:15;8.05;;;7.25;;
13321;SDS011;6730;46.248;6.930;2023-06-10T00:13:41;7.78;;;7.05;;
13321;SDS011;6730;46.248;6.930;2023-06-10T00:16:07;8.30;;;7.50;;
13321;SDS011;6730;46.248;6.930;2023-06-10T00:18:32;7.80;;;7.20;;
13321;SDS011;6730;46.248;6.930;2023-06-10T00:20:58;7.90;;;7.20;;
13321;SDS011;6730;46.248;6.930;2023-06-10T00:23:29;8.63;;;7.72;;
13321;SDS011;6730;46.248;6.930;2023-06-10T00:25:57;8.57;;;7.78;;
13321;SDS011;6730;46.248;6.930;2023-06-10T00:28:24;7.82;;;7.13;;
13321;SDS011;6730;46.248;6.930;2023-06-10T00:30:50;9.10;;;8.27;;
13321;SDS011;6730;46.248;6.930;2023-06-10T00:33:16;8.85;;;7.93;;
13321;SDS011;6730;46.248;6.930;2023-06-10T00:35:42;8.48;;;7.68;;
13321;SDS011;6730;46.248;6.930;2023-06-10T00:38:07;8.75;;;7.95;;
13321;SDS011;6730;46.248;6.930;2023-06-10T00:40:33;8.57;;;7.38;;
13321;SDS011;6730;46.248;6.930;2023-06-10T00:43:05;9.27;;;7.53;;
13321;SDS011;6730;46.248;6.930;2023-06-10T00:45:31;11.18;;;8.32;;
13321;SDS011;6730;46.248;6.930;2023-06-10T00:47:57;8.40;;;7.60;;
13321;SDS011;6730;46.248;6.930;2023-06-10T00:50:23;8.00;;;7.30;;
13321;SDS011;6730;46.248;6.930;2023-06-10T00:52:49;12.90;;;11.60;;
13321;SDS011;6730;46.248;6.930;2023-06-10T00:55:16;8.98;;;8.18;;
13321;SDS011;6730;46.248;6.930;2023-06-10T00:57:43;9.27;;;8.38;;
13321;SDS011;6730;46.248;6.930;2023-06-10T01:00:11;9.32;;;8.43;;
13321;SDS011;6730;46.248;6.930;2023-06-10T01:02:37;13.10;;;11.70;;
13321;SDS011;6730;46.248;6.930;2023-06-10T01:05:03;11.32;;;9.48;;
13321;SDS011;6730;46.248;6.930;2023-06-10T01:10:36;10.27;;;8.88;;
13321;SDS011;6730;46.248;6.930;2023-06-10T01:13:10;9.18;;;8.25;;
13321;SDS011;6730;46.248;6.930;2023-06-10T01:15:37;11.57;;;8.57;;
13321;SDS011;6730;46.248;6.930;2023-06-10T01:18:04;8.95;;;8.05;;
13321;SDS011;6730;46.248;6.930;2023-06-10T01:20:33;10.98;;;10.00;;
13321;SDS011;6730;46.248;6.930;2023-06-10T01:23:02;12.68;;;9.80;;
13321;SDS011;6730;46.248;6.930;2023-06-10T01:25:29;11.00;;;9.73;;
13321;SDS011;6730;46.248;6.930;2023-06-10T01:30:44;10.20;;;9.20;;
13321;SDS011;6730;46.248;6.930;2023-06-10T01:33:26;14.57;;;11.52;;
13321;SDS011;6730;46.248;6.930;2023-06-10T01:35:54;12.75;;;11.57;;
13321;SDS011;6730;46.248;6.930;2023-06-10T01:38:25;13.55;;;11.45;;
13321;SDS011;6730;46.248;6.930;2023-06-10T01:40:52;10.23;;;9.23;;
13321;SDS011;6730;46.248;6.930;2023-06-10T01:43:20;15.13;;;9.00;;
13321;SDS011;6730;46.248;6.930;2023-06-10T01:45:46;8.93;;;8.02;;
13321;SDS011;6730;46.248;6.930;2023-06-10T01:48:12;11.48;;;8.63;;
13321;SDS011;6730;46.248;6.930;2023-06-10T01:50:37;10.05;;;8.18;;
13321;SDS011;6730;46.248;6.930;2023-06-10T01:53:04;9.05;;;7.72;;
13321;SDS011;6730;46.248;6.930;2023-06-10T01:55:30;8.10;;;7.30;;
13321;SDS011;6730;46.248;6.930;2023-06-10T01:57:56;8.90;;;7.95;;
13321;SDS011;6730;46.248;6.930;2023-06-10T02:00:22;8.98;;;7.25;;
13321;SDS011;6730;46.248;6.930;2023-06-10T02:02:47;45.30;;;8.27;;
13321;SDS011;6730;46.248;6.930;2023-06-10T02:05:13;33.40;;;5.90;;
13321;SDS011;6730;46.248;6.930;2023-06-10T02:07:39;7.40;;;6.70;;
13321;SDS011;6730;46.248;6.930;2023-06-10T02:10:05;6.55;;;5.95;;
13321;SDS011;6730;46.248;6.930;2023-06-10T02:12:31;6.07;;;5.47;;
13321;SDS011;6730;46.248;6.930;2023-06-10T02:14:57;6.82;;;5.30;;
13321;SDS011;6730;46.248;6.930;2023-06-10T02:17:23;5.47;;;4.60;;
13321;SDS011;6730;46.248;6.930;2023-06-10T02:19:49;5.45;;;4.80;;
13321;SDS011;6730;46.248;6.930;2023-06-10T02:22:21;10.05;;;4.25;;
13321;SDS011;6730;46.248;6.930;2023-06-10T02:24:48;5.03;;;4.43;;
13321;SDS011;6730;46.248;6.930;2023-06-10T02:27:17;5.93;;;4.55;;
13321;SDS011;6730;46.248;6.930;2023-06-10T02:29:43;5.85;;;4.40;;
13321;SDS011;6730;46.248;6.930;2023-06-10T02:32:09;7.50;;;4.63;;
13321;SDS011;6730;46.248;6.930;2023-06-10T02:34:35;5.47;;;4.03;;
13321;SDS011;6730;46.248;6.930;2023-06-10T02:37:01;4.55;;;4.15;;
13321;SDS011;6730;46.248;6.930;2023-06-10T02:39:27;4.15;;;3.75;;
13321;SDS011;6730;46.248;6.930;2023-06-10T02:41:53;6.57;;;4.35;;
13321;SDS011;6730;46.248;6.930;2023-06-10T02:44:19;3.85;;;3.55;;
13321;SDS011;6730;46.248;6.930;2023-06-10T02:46:45;4.47;;;4.07;;
13321;SDS011;6730;46.248;6.930;2023-06-10T02:49:11;4.63;;;3.92;;
13321;SDS011;6730;46.248;6.930;2023-06-10T02:51:37;4.60;;;3.63;;
13321;SDS011;6730;46.248;6.930;2023-06-10T02:54:03;4.43;;;4.00;;
13321;SDS011;6730;46.248;6.930;2023-06-10T02:56:29;6.50;;;4.07;;
13321;SDS011;6730;46.248;6.930;2023-06-10T02:58:58;4.38;;;3.97;;
13321;SDS011;6730;46.248;6.930;2023-06-10T03:01:23;4.78;;;4.07;;
13321;SDS011;6730;46.248;6.930;2023-06-10T03:03:49;39.97;;;6.70;;
13321;SDS011;6730;46.248;6.930;2023-06-10T03:06:15;4.45;;;4.05;;
13321;SDS011;6730;46.248;6.930;2023-06-10T03:08:41;5.82;;;4.30;;
13321;SDS011;6730;46.248;6.930;2023-06-10T03:11:07;8.23;;;4.15;;
13321;SDS011;6730;46.248;6.930;2023-06-10T03:13:33;4.68;;;4.18;;
13321;SDS011;6730;46.248;6.930;2023-06-10T03:15:59;4.57;;;4.18;;
13321;SDS011;6730;46.248;6.930;2023-06-10T03:18:26;7.95;;;4.45;;
13321;SDS011;6730;46.248;6.930;2023-06-10T03:20:52;4.40;;;4.00;;
13321;SDS011;6730;46.248;6.930;2023-06-10T03:23:18;4.30;;;3.90;;
13321;SDS011;6730;46.248;6.930;2023-06-10T03:25:44;8.07;;;3.90;;
13321;SDS011;6730;46.248;6.930;2023-06-10T03:28:10;4.35;;;3.95;;
13321;SDS011;6730;46.248;6.930;2023-06-10T03:30:36;4.53;;;4.03;;
13321;SDS011;6730;46.248;6.930;2023-06-10T03:33:02;4.07;;;3.67;;
13321;SDS011;6730;46.248;6.930;2023-06-10T03:35:28;5.40;;;4.10;;
13321;SDS011;6730;46.248;6.930;2023-06-10T03:37:54;3.78;;;3.47;;
13321;SDS011;6730;46.248;6.930;2023-06-10T03:40:20;5.18;;;3.60;;
13321;SDS011;6730;46.248;6.930;2023-06-10T03:42:45;3.72;;;3.42;;
13321;SDS011;6730;46.248;6.930;2023-06-10T03:45:11;5.20;;;3.97;;
13321;SDS011;6730;46.248;6.930;2023-06-10T03:47:37;4.05;;;3.65;;
13321;SDS011;6730;46.248;6.930;2023-06-10T03:50:05;3.95;;;3.50;;
13321;SDS011;6730;46.248;6.930;2023-06-10T03:52:33;4.40;;;4.00;;
13321;SDS011;6730;46.248;6.930;2023-06-10T03:54:59;4.10;;;3.67;;
13321;SDS011;6730;46.248;6.930;2023-06-10T03:57:25;4.18;;;3.78;;
13321;SDS011;6730;46.248;6.930;2023-06-10T03:59:50;6.03;;;4.07;;
13321;SDS011;6730;46.248;6.930;2023-06-10T04:02:16;4.63;;;3.70;;
13321;SDS011;6730;46.248;6.930;2023-06-10T04:04:42;4.00;;;3.60;;
13321;SDS011;6730;46.248;6.930;2023-06-10T04:07:08;4.13;;;3.72;;
13321;SDS011;6730;46.248;6.930;2023-06-10T04:09:34;5.32;;;4.07;;
13321;SDS011;6730;46.248;6.930;2023-06-10T04:12:04;4.38;;;3.97;;
13321;SDS011;6730;46.248;6.930;2023-06-10T04:14:33;4.22;;;3.83;;
13321;SDS011;6730;46.248;6.930;2023-06-10T04:17:00;4.70;;;4.30;;
13321;SDS011;6730;46.248;6.930;2023-06-10T04:19:27;4.82;;;3.53;;
13321;SDS011;6730;46.248;6.930;2023-06-10T04:21:53;4.35;;;3.78;;
13321;SDS011;6730;46.248;6.930;2023-06-10T04:24:19;4.05;;;3.75;;
13321;SDS011;6730;46.248;6.930;2023-06-10T04:26:44;7.50;;;4.47;;
13321;SDS011;6730;46.248;6.930;2023-06-10T04:29:10;4.78;;;3.83;;
13321;SDS011;6730;46.248;6.930;2023-06-10T04:31:38;6.40;;;4.60;;
13321;SDS011;6730;46.248;6.930;2023-06-10T04:34:04;4.70;;;4.03;;
13321;SDS011;6730;46.248;6.930;2023-06-10T04:36:29;4.20;;;3.90;;
13321;SDS011;6730;46.248;6.930;2023-06-10T04:38:55;4.45;;;4.05;;
13321;SDS011;6730;46.248;6.930;2023-06-10T04:41:21;4.00;;;3.65;;
13321;SDS011;6730;46.248;6.930;2023-06-10T04:43:47;4.38;;;3.97;;
13321;SDS011;6730;46.248;6.930;2023-06-10T04:46:13;4.78;;;3.65;;
13321;SDS011;6730;46.248;6.930;2023-06-10T04:48:38;5.13;;;3.70;;
13321;SDS011;6730;46.248;6.930;2023-06-10T04:51:05;4.78;;;3.83;;
13321;SDS011;6730;46.248;6.930;2023-06-10T04:53:31;4.10;;;3.70;;
13321;SDS011;6730;46.248;6.930;2023-06-10T04:55:57;4.13;;;3.75;;
13321;SDS011;6730;46.248;6.930;2023-06-10T04:58:23;4.43;;;4.03;;
13321;SDS011;6730;46.248;6.930;2023-06-10T05:00:48;5.35;;;4.00;;
13321;SDS011;6730;46.248;6.930;2023-06-10T05:03:15;5.07;;;4.15;;
13321;SDS011;6730;46.248;6.930;2023-06-10T05:05:40;4.95;;;4.50;;
13321;SDS011;6730;46.248;6.930;2023-06-10T05:08:06;5.18;;;4.45;;
13321;SDS011;6730;46.248;6.930;2023-06-10T05:10:32;4.80;;;4.40;;
13321;SDS011;6730;46.248;6.930;2023-06-10T05:12:59;4.75;;;4.35;;
13321;SDS011;6730;46.248;6.930;2023-06-10T05:15:24;5.28;;;4.55;;
13321;SDS011;6730;46.248;6.930;2023-06-10T05:17:50;5.68;;;4.72;;
13321;SDS011;6730;46.248;6.930;2023-06-10T05:20:16;6.15;;;4.57;;
13321;SDS011;6730;46.248;6.930;2023-06-10T05:22:43;4.85;;;4.45;;
13321;SDS011;6730;46.248;6.930;2023-06-10T05:25:09;5.03;;;4.53;;
13321;SDS011;6730;46.248;6.930;2023-06-10T05:27:35;6.90;;;4.57;;
13321;SDS011;6730;46.248;6.930;2023-06-10T05:30:01;4.63;;;4.22;;
13321;SDS011;6730;46.248;6.930;2023-06-10T05:32:28;4.30;;;3.90;;
13321;SDS011;6730;46.248;6.930;2023-06-10T05:34:54;7.20;;;4.60;;
13321;SDS011;6730;46.248;6.930;2023-06-10T05:37:20;4.35;;;3.95;;
13321;SDS011;6730;46.248;6.930;2023-06-10T05:39:45;4.55;;;4.15;;
13321;SDS011;6730;46.248;6.930;2023-06-10T05:42:11;4.80;;;4.40;;
13321;SDS011;6730;46.248;6.930;2023-06-10T05:44:37;4.57;;;4.18;;
13321;SDS011;6730;46.248;6.930;2023-06-10T05:47:02;5.22;;;4.43;;
13321;SDS011;6730;46.248;6.930;2023-06-10T05:49:28;5.97;;;5.47;;
13321;SDS011;6730;46.248;6.930;2023-06-10T05:51:54;4.97;;;4.57;;
13321;SDS011;6730;46.248;6.930;2023-06-10T05:54:21;5.30;;;3.85;;
13321;SDS011;6730;46.248;6.930;2023-06-10T05:56:47;4.47;;;4.07;;
13321;SDS011;6730;46.248;6.930;2023-06-10T05:59:13;5.00;;;4.50;;
13321;SDS011;6730;46.248;6.930;2023-06-10T06:01:38;5.22;;;3.88;;
13321;SDS011;6730;46.248;6.930;2023-06-10T06:04:04;4.90;;;4.20;;
13321;SDS011;6730;46.248;6.930;2023-06-10T06:06:30;4.70;;;4.30;;
13321;SDS011;6730;46.248;6.930;2023-06-10T06:08:55;4.72;;;4.32;;
13321;SDS011;6730;46.248;6.930;2023-06-10T06:11:21;4.20;;;3.80;;
13321;SDS011;6730;46.248;6.930;2023-06-10T06:13:47;55.85;;;7.72;;
13321;SDS011;6730;46.248;6.930;2023-06-10T06:16:13;4.88;;;4.32;;
13321;SDS011;6730;46.248;6.930;2023-06-10T06:18:39;4.97;;;4.43;;
13321;SDS011;6730;46.248;6.930;2023-06-10T06:21:04;5.53;;;5.03;;
13321;SDS011;6730;46.248;6.930;2023-06-10T06:23:30;5.32;;;4.30;;
13321;SDS011;6730;46.248;6.930;2023-06-10T06:25:56;4.90;;;4.50;;
13321;SDS011;6730;46.248;6.930;2023-06-10T06:28:21;4.70;;;4.30;;
13321;SDS011;6730;46.248;6.930;2023-06-10T06:30:47;4.55;;;4.15;;
13321;SDS011;6730;46.248;6.930;2023-06-10T06:33:13;4.65;;;3.88;;
13321;SDS011;6730;46.248;6.930;2023-06-10T06:35:39;4.10;;;3.75;;
13321;SDS011;6730;46.248;6.930;2023-06-10T06:38:05;4.05;;;3.65;;
13321;SDS011;6730;46.248;6.930;2023-06-10T06:40:30;4.47;;;3.83;;
13321;SDS011;6730;46.248;6.930;2023-06-10T06:42:56;4.53;;;4.10;;
13321;SDS011;6730;46.248;6.930;2023-06-10T06:45:22;5.75;;;4.45;;
13321;SDS011;6730;46.248;6.930;2023-06-10T06:47:47;5.75;;;5.15;;
13321;SDS011;6730;46.248;6.930;2023-06-10T06:50:13;9.50;;;6.78;;
13321;SDS011;6730;46.248;6.930;2023-06-10T06:52:39;8.32;;;6.30;;
13321;SDS011;6730;46.248;6.930;2023-06-10T06:55:05;6.00;;;5.40;;
13321;SDS011;6730;46.248;6.930;2023-06-10T06:57:31;8.18;;;7.38;;
13321;SDS011;6730;46.248;6.930;2023-06-10T06:59:57;9.00;;;8.20;;
13321;SDS011;6730;46.248;6.930;2023-06-10T07:02:22;7.95;;;7.22;;
13321;SDS011;6730;46.248;6.930;2023-06-10T07:04:48;8.90;;;8.05;;
13321;SDS011;6730;46.248;6.930;2023-06-10T07:07:14;8.68;;;7.88;;
13321;SDS011;6730;46.248;6.930;2023-06-10T07:09:40;8.68;;;7.72;;
13321;SDS011;6730;46.248;6.930;2023-06-10T07:12:06;8.52;;;7.72;;
13321;SDS011;6730;46.248;6.930;2023-06-10T07:14:32;8.98;;;8.07;;
13321;SDS011;6730;46.248;6.930;2023-06-10T07:16:58;8.93;;;8.13;;
13321;SDS011;6730;46.248;6.930;2023-06-10T07:19:24;10.88;;;8.88;;
13321;SDS011;6730;46.248;6.930;2023-06-10T07:21:49;9.32;;;8.38;;
13321;SDS011;6730;46.248;6.930;2023-06-10T07:24:15;9.60;;;8.70;;
13321;SDS011;6730;46.248;6.930;2023-06-10T07:26:41;9.10;;;8.13;;
13321;SDS011;6730;46.248;6.930;2023-06-10T07:29:06;9.80;;;8.80;;
13321;SDS011;6730;46.248;6.930;2023-06-10T07:31:32;18.13;;;10.18;;
13321;SDS011;6730;46.248;6.930;2023-06-10T07:33:58;9.60;;;8.70;;
13321;SDS011;6730;46.248;6.930;2023-06-10T07:36:24;9.23;;;8.38;;
13321;SDS011;6730;46.248;6.930;2023-06-10T07:38:52;8.15;;;7.35;;
13321;SDS011;6730;46.248;6.930;2023-06-10T07:41:18;9.48;;;8.57;;
13321;SDS011;6730;46.248;6.930;2023-06-10T07:43:46;9.82;;;8.88;;
13321;SDS011;6730;46.248;6.930;2023-06-10T07:46:11;9.40;;;8.50;;
13321;SDS011;6730;46.248;6.930;2023-06-10T07:48:37;8.30;;;7.30;;
13321;SDS011;6730;46.248;6.930;2023-06-10T07:51:02;9.63;;;8.73;;
13321;SDS011;6730;46.248;6.930;2023-06-10T07:53:28;9.85;;;8.88;;
13321;SDS011;6730;46.248;6.930;2023-06-10T07:55:54;8.10;;;7.32;;
13321;SDS011;6730;46.248;6.930;2023-06-10T07:58:20;11.45;;;8.70;;
13321;SDS011;6730;46.248;6.930;2023-06-10T08:00:47;8.68;;;7.88;;
13321;SDS011;6730;46.248;6.930;2023-06-10T08:03:12;9.82;;;8.93;;
13321;SDS011;6730;46.248;6.930;2023-06-10T08:05:39;26.40;;;21.98;;
13321;SDS011;6730;46.248;6.930;2023-06-10T08:08:05;10.82;;;9.73;;
13321;SDS011;6730;46.248;6.930;2023-06-10T08:10:30;10.50;;;9.60;;
13321;SDS011;6730;46.248;6.930;2023-06-10T08:12:56;9.95;;;9.05;;
13321;SDS011;6730;46.248;6.930;2023-06-10T08:15:22;9.65;;;8.75;;
13321;SDS011;6730;46.248;6.930;2023-06-10T08:17:47;11.25;;;10.13;;
13321;SDS011;6730;46.248;6.930;2023-06-10T08:20:13;11.50;;;10.40;;
13321;SDS011;6730;46.248;6.930;2023-06-10T08:22:39;12.02;;;10.73;;
13321;SDS011;6730;46.248;6.930;2023-06-10T08:25:05;11.45;;;10.27;;
13321;SDS011;6730;46.248;6.930;2023-06-10T08:27:31;9.20;;;8.10;;
13321;SDS011;6730;46.248;6.930;2023-06-10T08:29:56;9.55;;;8.63;;
13321;SDS011;6730;46.248;6.930;2023-06-10T08:32:24;8.98;;;8.15;;
13321;SDS011;6730;46.248;6.930;2023-06-10T08:34:52;12.20;;;11.05;;
13321;SDS011;6730;46.248;6.930;2023-06-10T08:37:18;15.55;;;9.30;;
13321;SDS011;6730;46.248;6.930;2023-06-10T08:39:43;11.77;;;10.68;;
13321;SDS011;6730;46.248;6.930;2023-06-10T08:42:28;8.98;;;8.05;;
13321;SDS011;6730;46.248;6.930;2023-06-10T08:45:12;10.35;;;8.30;;
13321;SDS011;6730;46.248;6.930;2023-06-10T08:47:46;9.20;;;8.40;;
13321;SDS011;6730;46.248;6.930;2023-06-10T08:50:18;10.20;;;8.80;;
13321;SDS011;6730;46.248;6.930;2023-06-10T08:52:45;9.60;;;8.68;;
13321;SDS011;6730;46.248;6.930;2023-06-10T08:55:17;11.68;;;10.65;;
13321;SDS011;6730;46.248;6.930;2023-06-10T08:57:50;9.38;;;8.48;;
13321;SDS011;6730;46.248;6.930;2023-06-10T09:00:17;8.57;;;7.78;;
13321;SDS011;6730;46.248;6.930;2023-06-10T09:02:43;10.95;;;10.00;;
13321;SDS011;6730;46.248;6.930;2023-06-10T09:05:10;11.38;;;10.18;;
13321;SDS011;6730;46.248;6.930;2023-06-10T09:07:36;10.05;;;9.05;;
13321;SDS011;6730;46.248;6.930;2023-06-10T09:10:02;10.68;;;9.35;;
13321;SDS011;6730;46.248;6.930;2023-06-10T09:12:29;10.90;;;9.90;;
13321;SDS011;6730;46.248;6.930;2023-06-10T09:14:54;7.50;;;6.90;;
13321;SDS011;6730;46.248;6.930;2023-06-10T09:17:20;10.20;;;9.30;;
13321;SDS011;6730;46.248;6.930;2023-06-10T09:19:47;10.32;;;9.32;;
13321;SDS011;6730;46.248;6.930;2023-06-10T09:22:14;9.48;;;8.55;;
13321;SDS011;6730;46.248;6.930;2023-06-10T09:24:39;9.52;;;8.63;;
13321;SDS011;6730;46.248;6.930;2023-06-10T09:27:07;9.93;;;8.93;;
13321;SDS011;6730;46.248;6.930;2023-06-10T09:29:53;7.72;;;6.93;;
13321;SDS011;6730;46.248;6.930;2023-06-10T09:32:20;8.73;;;7.88;;
13321;SDS011;6730;46.248;6.930;2023-06-10T09:34:46;7.85;;;7.05;;
13321;SDS011;6730;46.248;6.930;2023-06-10T09:37:12;9.00;;;8.02;;
13321;SDS011;6730;46.248;6.930;2023-06-10T09:39:44;8.90;;;8.10;;
13321;SDS011;6730;46.248;6.930;2023-06-10T09:42:16;8.93;;;8.13;;
13321;SDS011;6730;46.248;6.930;2023-06-10T09:44:48;7.10;;;6.50;;
13321;SDS011;6730;46.248;6.930;2023-06-10T09:47:19;7.53;;;6.82;;
13321;SDS011;6730;46.248;6.930;2023-06-10T09:49:47;7.03;;;6.40;;
13321;SDS011;6730;46.248;6.930;2023-06-10T09:52:25;7.25;;;6.57;;
13321;SDS011;6730;46.248;6.930;2023-06-10T09:54:53;6.63;;;5.88;;
13321;SDS011;6730;46.248;6.930;2023-06-10T09:57:20;6.70;;;6.00;;
13321;SDS011;6730;46.248;6.930;2023-06-10T09:59:46;6.45;;;5.85;;
13321;SDS011;6730;46.248;6.930;2023-06-10T10:02:13;6.68;;;6.07;;
13321;SDS011;6730;46.248;6.930;2023-06-10T10:04:43;5.82;;;5.30;;
13321;SDS011;6730;46.248;6.930;2023-06-10T10:07:09;6.70;;;6.10;;
13321;SDS011;6730;46.248;6.930;2023-06-10T10:09:39;6.10;;;5.50;;
13321;SDS011;6730;46.248;6.930;2023-06-10T10:12:09;5.93;;;4.32;;
13321;SDS011;6730;46.248;6.930;2023-06-10T10:14:36;4.68;;;4.15;;
13321;SDS011;6730;46.248;6.930;2023-06-10T10:17:04;3.72;;;3.42;;
13321;SDS011;6730;46.248;6.930;2023-06-10T10:19:34;2.50;;;2.30;;
13321;SDS011;6730;46.248;6.930;2023-06-10T10:22:06;3.83;;;2.83;;
13321;SDS011;6730;46.248;6.930;2023-06-10T10:24:36;4.03;;;3.60;;
13321;SDS011;6730;46.248;6.930;2023-06-10T10:27:11;3.78;;;3.33;;
13321;SDS011;6730;46.248;6.930;2023-06-10T10:29:43;2.80;;;2.60;;
13321;SDS011;6730;46.248;6.930;2023-06-10T10:32:12;4.88;;;3.50;;
13321;SDS011;6730;46.248;6.930;2023-06-10T10:34:50;4.47;;;3.33;;
13321;SDS011;6730;46.248;6.930;2023-06-10T10:37:23;2.45;;;2.25;;
13321;SDS011;6730;46.248;6.930;2023-06-10T10:39:50;2.70;;;2.47;;
13321;SDS011;6730;46.248;6.930;2023-06-10T10:42:17;2.30;;;2.10;;
13321;SDS011;6730;46.248;6.930;2023-06-10T10:44:43;2.20;;;2.00;;
13321;SDS011;6730;46.248;6.930;2023-06-10T10:47:10;2.00;;;1.80;;
13321;SDS011;6730;46.248;6.930;2023-06-10T10:49:37;1.88;;;1.77;;
13321;SDS011;6730;46.248;6.930;2023-06-10T10:52:04;2.42;;;2.10;;
13321;SDS011;6730;46.248;6.930;2023-06-10T10:54:36;3.67;;;2.17;;
13321;SDS011;6730;46.248;6.930;2023-06-10T10:57:17;2.17;;;1.77;;
13321;SDS011;6730;46.248;6.930;2023-06-10T10:59:56;3.08;;;2.15;;
13321;SDS011;6730;46.248;6.930;2023-06-10T11:02:42;3.83;;;3.50;;
13321;SDS011;6730;46.248;6.930;2023-06-10T11:05:10;2.88;;;2.67;;
13321;SDS011;6730;46.248;6.930;2023-06-10T11:07:38;3.25;;;2.88;;
13321;SDS011;6730;46.248;6.930;2023-06-10T11:10:08;2.90;;;2.65;;
13321;SDS011;6730;46.248;6.930;2023-06-10T11:12:42;3.10;;;2.90;;
13321;SDS011;6730;46.248;6.930;2023-06-10T11:15:27;3.13;;;2.83;;
13321;SDS011;6730;46.248;6.930;2023-06-10T11:18:38;2.75;;;2.55;;
13321;SDS011;6730;46.248;6.930;2023-06-10T11:31:18;3.15;;;2.95;;
13321;SDS011;6730;46.248;6.930;2023-06-10T11:33:46;3.83;;;3.40;;
13321;SDS011;6730;46.248;6.930;2023-06-10T11:36:13;3.10;;;2.80;;
13321;SDS011;6730;46.248;6.930;2023-06-10T11:38:40;3.70;;;3.17;;
13321;SDS011;6730;46.248;6.930;2023-06-10T11:41:06;5.05;;;3.40;;
13321;SDS011;6730;46.248;6.930;2023-06-10T11:43:32;3.90;;;3.47;;
13321;SDS011;6730;46.248;6.930;2023-06-10T11:45:58;4.32;;;3.92;;
13321;SDS011;6730;46.248;6.930;2023-06-10T11:48:25;4.03;;;3.63;;
13321;SDS011;6730;46.248;6.930;2023-06-10T11:50:53;3.90;;;3.60;;
13321;SDS011;6730;46.248;6.930;2023-06-10T11:53:19;3.60;;;3.17;;
13321;SDS011;6730;46.248;6.930;2023-06-10T11:55:45;4.18;;;3.78;;
13321;SDS011;6730;46.248;6.930;2023-06-10T11:58:19;5.07;;;4.35;;
13321;SDS011;6730;46.248;6.930;2023-06-10T12:03:15;4.30;;;3.90;;
13321;SDS011;6730;46.248;6.930;2023-06-10T12:05:57;4.13;;;3.72;;
13321;SDS011;6730;46.248;6.930;2023-06-10T12:08:24;3.35;;;3.00;;
13321;SDS011;6730;46.248;6.930;2023-06-10T12:10:51;3.60;;;3.30;;
13321;SDS011;6730;46.248;6.930;2023-06-10T12:13:17;3.45;;;3.22;;
13321;SDS011;6730;46.248;6.930;2023-06-10T12:15:43;3.65;;;3.10;;
13321;SDS011;6730;46.248;6.930;2023-06-10T12:18:19;3.10;;;2.90;;
13321;SDS011;6730;46.248;6.930;2023-06-10T12:20:48;3.45;;;3.05;;
13321;SDS011;6730;46.248;6.930;2023-06-10T12:23:15;3.45;;;3.15;;
13321;SDS011;6730;46.248;6.930;2023-06-10T12:25:53;5.05;;;3.65;;
13321;SDS011;6730;46.248;6.930;2023-06-10T12:28:23;4.90;;;3.20;;
13321;SDS011;6730;46.248;6.930;2023-06-10T12:30:49;3.60;;;3.28;;
13321;SDS011;6730;46.248;6.930;2023-06-10T12:33:19;3.40;;;3.10;;
13321;SDS011;6730;46.248;6.930;2023-06-10T12:35:52;3.58;;;2.92;;
13321;SDS011;6730;46.248;6.930;2023-06-10T12:38:24;3.72;;;3.35;;
13321;SDS011;6730;46.248;6.930;2023-06-10T12:40:54;3.35;;;3.05;;
13321;SDS011;6730;46.248;6.930;2023-06-10T12:43:26;4.80;;;3.40;;
13321;SDS011;6730;46.248;6.930;2023-06-10T12:45:51;3.80;;;3.45;;
13321;SDS011;6730;46.248;6.930;2023-06-10T12:48:19;4.05;;;3.47;;
13321;SDS011;6730;46.248;6.930;2023-06-10T12:50:50;5.63;;;5.13;;
13321;SDS011;6730;46.248;6.930;2023-06-10T12:53:17;3.13;;;2.83;;
13321;SDS011;6730;46.248;6.930;2023-06-10T12:55:44;3.35;;;3.10;;
13321;SDS011;6730;46.248;6.930;2023-06-10T12:58:11;3.35;;;3.05;;
13321;SDS011;6730;46.248;6.930;2023-06-10T13:00:37;4.85;;;3.30;;
13321;SDS011;6730;46.248;6.930;2023-06-10T13:03:03;2.88;;;2.67;;
13321;SDS011;6730;46.248;6.930;2023-06-10T13:05:30;3.25;;;3.05;;
13321;SDS011;6730;46.248;6.930;2023-06-10T13:07:57;4.93;;;3.70;;
13321;SDS011;6730;46.248;6.930;2023-06-10T13:10:23;3.60;;;3.20;;
13321;SDS011;6730;46.248;6.930;2023-06-10T13:12:50;3.38;;;3.08;;
13321;SDS011;6730;46.248;6.930;2023-06-10T13:15:16;4.00;;;3.60;;
13321;SDS011;6730;46.248;6.930;2023-06-10T13:17:42;3.33;;;3.03;;
13321;SDS011;6730;46.248;6.930;2023-06-10T13:20:09;3.40;;;3.10;;
13321;SDS011;6730;46.248;6.930;2023-06-10T13:22:34;3.50;;;3.20;;
13321;SDS011;6730;46.248;6.930;2023-06-10T13:25:04;3.33;;;2.88;;
13321;SDS011;6730;46.248;6.930;2023-06-10T13:27:34;3.72;;;3.15;;
13321;SDS011;6730;46.248;6.930;2023-06-10T13:30:03;3.28;;;2.97;;
13321;SDS011;6730;46.248;6.930;2023-06-10T13:32:29;3.30;;;3.08;;
13321;SDS011;6730;46.248;6.930;2023-06-10T13:34:54;3.22;;;2.97;;
13321;SDS011;6730;46.248;6.930;2023-06-10T13:37:21;3.25;;;2.95;;
13321;SDS011;6730;46.248;6.930;2023-06-10T13:39:47;4.65;;;2.83;;
13321;SDS011;6730;46.248;6.930;2023-06-10T13:42:15;2.90;;;2.70;;
13321;SDS011;6730;46.248;6.930;2023-06-10T13:44:44;3.78;;;2.88;;
13321;SDS011;6730;46.248;6.930;2023-06-10T13:47:10;3.08;;;2.80;;
13321;SDS011;6730;46.248;6.930;2023-06-10T13:49:35;3.28;;;2.97;;
13321;SDS011;6730;46.248;6.930;2023-06-10T13:52:01;3.42;;;2.92;;
13321;SDS011;6730;46.248;6.930;2023-06-10T13:54:27;3.03;;;2.83;;
13321;SDS011;6730;46.248;6.930;2023-06-10T13:56:53;3.17;;;2.90;;
13321;SDS011;6730;46.248;6.930;2023-06-10T13:59:19;3.45;;;3.15;;
13321;SDS011;6730;46.248;6.930;2023-06-10T14:01:46;3.47;;;3.17;;
13321;SDS011;6730;46.248;6.930;2023-06-10T14:04:12;3.38;;;3.10;;
13321;SDS011;6730;46.248;6.930;2023-06-10T14:06:37;3.08;;;2.85;;
13321;SDS011;6730;46.248;6.930;2023-06-10T14:09:03;3.72;;;3.42;;
13321;SDS011;6730;46.248;6.930;2023-06-10T14:11:29;3.95;;;3.00;;
13321;SDS011;6730;46.248;6.930;2023-06-10T14:13:56;3.47;;;3.17;;
13321;SDS011;6730;46.248;6.930;2023-06-10T14:16:23;3.30;;;3.00;;
13321;SDS011;6730;46.248;6.930;2023-06-10T14:18:51;4.07;;;3.17;;
13321;SDS011;6730;46.248;6.930;2023-06-10T14:21:16;3.28;;;2.97;;
13321;SDS011;6730;46.248;6.930;2023-06-10T14:23:42;3.10;;;2.90;;
13321;SDS011;6730;46.248;6.930;2023-06-10T14:26:08;3.28;;;3.08;;
13321;SDS011;6730;46.248;6.930;2023-06-10T14:28:34;3.47;;;3.25;;
13321;SDS011;6730;46.248;6.930;2023-06-10T14:31:00;3.47;;;3.05;;
13321;SDS011;6730;46.248;6.930;2023-06-10T14:33:26;6.85;;;3.25;;
13321;SDS011;6730;46.248;6.930;2023-06-10T14:35:52;3.53;;;3.13;;
13321;SDS011;6730;46.248;6.930;2023-06-10T14:38:17;3.60;;;3.10;;
13321;SDS011;6730;46.248;6.930;2023-06-10T14:40:43;4.00;;;2.72;;
13321;SDS011;6730;46.248;6.930;2023-06-10T14:43:09;3.10;;;2.90;;
13321;SDS011;6730;46.248;6.930;2023-06-10T14:45:44;3.17;;;2.97;;
13321;SDS011;6730;46.248;6.930;2023-06-10T14:48:10;3.25;;;2.80;;
13321;SDS011;6730;46.248;6.930;2023-06-10T14:50:37;3.08;;;2.70;;
13321;SDS011;6730;46.248;6.930;2023-06-10T14:53:03;5.05;;;3.40;;
13321;SDS011;6730;46.248;6.930;2023-06-10T14:55:29;4.45;;;3.20;;
13321;SDS011;6730;46.248;6.930;2023-06-10T14:57:54;3.40;;;2.88;;
13321;SDS011;6730;46.248;6.930;2023-06-10T15:00:22;3.08;;;2.70;;
13321;SDS011;6730;46.248;6.930;2023-06-10T15:02:49;2.95;;;2.65;;
13321;SDS011;6730;46.248;6.930;2023-06-10T15:05:15;2.47;;;2.20;;
13321;SDS011;6730;46.248;6.930;2023-06-10T15:07:42;2.30;;;2.10;;
13321;SDS011;6730;46.248;6.930;2023-06-10T15:10:08;1.90;;;1.80;;
13321;SDS011;6730;46.248;6.930;2023-06-10T15:12:35;2.00;;;1.77;;
13321;SDS011;6730;46.248;6.930;2023-06-10T15:15:01;1.70;;;1.58;;
13321;SDS011;6730;46.248;6.930;2023-06-10T15:17:27;2.55;;;1.85;;
13321;SDS011;6730;46.248;6.930;2023-06-10T15:19:53;1.80;;;1.52;;